createdAt,value
2022-11-20T00:01:44.162Z,-2.70
2022-11-20T00:04:13.175Z,-2.70
2022-11-20T00:06:43.232Z,-2.70
2022-11-20T00:09:12.569Z,-2.70
2022-11-20T00:11:41.225Z,-3.00
2022-11-20T00:14:11.877Z,-3.10
2022-11-20T00:16:40.946Z,-2.90
2022-11-20T00:19:09.584Z,-3.00
2022-11-20T00:21:38.206Z,-3.10
2022-11-20T00:24:11.159Z,-3.10
2022-11-20T00:26:42.470Z,-3.00
2022-11-20T00:29:11.671Z,-2.90
2022-11-20T00:31:40.387Z,-2.90
2022-11-20T00:34:09.035Z,-3.10
2022-11-20T00:36:37.914Z,-3.10
2022-11-20T00:39:08.067Z,-3.20
2022-11-20T00:41:36.745Z,-3.30
2022-11-20T00:44:05.504Z,-3.20
2022-11-20T00:46:34.092Z,-3.00
2022-11-20T00:49:02.769Z,-3.10
2022-11-20T00:51:31.404Z,-3.00
2022-11-20T00:54:01.150Z,-2.90
2022-11-20T00:56:31.280Z,-3.00
2022-11-20T00:59:02.298Z,-3.00
2022-11-20T01:01:31.319Z,-2.90
2022-11-20T01:04:01.691Z,-2.90
2022-11-20T01:06:32.209Z,-2.90
2022-11-20T01:09:03.121Z,-3.00
2022-11-20T01:11:34.603Z,-3.10
2022-11-20T01:14:05.381Z,-3.10
2022-11-20T01:16:35.959Z,-3.10
2022-11-20T01:19:07.483Z,-3.10
2022-11-20T01:21:38.579Z,-3.10
2022-11-20T01:24:09.161Z,-3.20
2022-11-20T01:26:40.785Z,-3.10
2022-11-20T01:29:12.101Z,-3.30
2022-11-20T01:31:40.713Z,-3.20
2022-11-20T01:34:12.879Z,-3.20
2022-11-20T01:36:42.496Z,-3.10
2022-11-20T01:39:16.213Z,-3.20
2022-11-20T01:42:09.408Z,-3.20
2022-11-20T01:44:58.513Z,-3.20
2022-11-20T01:47:33.280Z,-3.30
2022-11-20T01:50:06.472Z,-3.30
2022-11-20T01:52:39.968Z,-3.40
2022-11-20T01:55:11.484Z,-3.40
2022-11-20T01:57:43.017Z,-3.40
2022-11-20T02:00:14.266Z,-3.40
2022-11-20T02:02:46.678Z,-3.30
2022-11-20T02:05:22.314Z,-3.30
2022-11-20T02:07:51.663Z,-3.30
2022-11-20T02:10:20.667Z,-3.30
2022-11-20T02:13:08.281Z,-3.20
2022-11-20T02:15:37.062Z,-3.20
2022-11-20T02:18:07.738Z,-3.40
2022-11-20T02:20:36.412Z,-3.60
2022-11-20T02:23:10.772Z,-3.70
2022-11-20T02:25:43.188Z,-3.50
2022-11-20T02:28:12.359Z,-3.40
2022-11-20T02:30:40.973Z,-3.30
2022-11-20T02:33:09.657Z,-3.40
2022-11-20T02:35:48.315Z,-3.70
2022-11-20T02:38:17.615Z,-3.80
2022-11-20T02:40:51.374Z,-3.90
2022-11-20T02:43:22.936Z,-3.90
2022-11-20T02:45:52.212Z,-3.70
2022-11-20T02:48:20.814Z,-3.60
2022-11-20T02:50:49.614Z,-3.60
2022-11-20T02:53:21.412Z,-3.50
2022-11-20T02:55:51.461Z,-3.70
2022-11-20T02:58:20.227Z,-3.80
2022-11-20T03:00:48.867Z,-3.70
2022-11-20T03:03:17.438Z,-3.80
2022-11-20T03:05:46.108Z,-3.70
2022-11-20T03:08:14.808Z,-3.70
2022-11-20T03:10:43.539Z,-3.80
2022-11-20T03:13:13.520Z,-3.80
2022-11-20T03:15:42.526Z,-3.70
2022-11-20T03:18:11.312Z,-3.80
2022-11-20T03:20:39.985Z,-3.70
2022-11-20T03:23:08.642Z,-3.80
2022-11-20T03:25:37.272Z,-3.70
2022-11-20T03:28:06.174Z,-3.70
2022-11-20T03:30:37.031Z,-3.70
2022-11-20T03:33:05.734Z,-3.70
2022-11-20T03:35:34.290Z,-3.70
2022-11-20T03:38:02.858Z,-3.90
2022-11-20T03:40:31.396Z,-3.90
2022-11-20T03:43:00.031Z,-3.90
2022-11-20T03:45:29.003Z,-3.80
2022-11-20T03:47:59.074Z,-3.70
2022-11-20T03:50:28.503Z,-3.70
2022-11-20T03:52:57.470Z,-3.60
2022-11-20T03:55:26.161Z,-3.70
2022-11-20T03:57:54.707Z,-3.70
2022-11-20T04:00:23.347Z,-3.80
2022-11-20T04:02:52.074Z,-3.90
2022-11-20T04:05:23.379Z,-4.00
2022-11-20T04:07:52.071Z,-3.90
2022-11-20T04:10:20.788Z,-3.80
2022-11-20T04:12:58.155Z,-3.90
2022-11-20T04:15:29.290Z,-4.00
2022-11-20T04:17:58.616Z,-4.00
2022-11-20T04:20:33.547Z,-3.90
2022-11-20T04:23:02.173Z,-3.80
2022-11-20T04:25:30.856Z,-3.80
2022-11-20T04:27:59.490Z,-3.80
2022-11-20T04:30:28.543Z,-3.90
2022-11-20T04:32:57.485Z,-3.90
2022-11-20T04:35:26.275Z,-3.90
2022-11-20T04:37:56.395Z,-3.80
2022-11-20T04:40:28.092Z,-3.90
2022-11-20T04:42:59.074Z,-3.90
2022-11-20T04:45:28.687Z,-4.20
2022-11-20T04:47:57.448Z,-4.40
2022-11-20T04:50:26.314Z,-4.40
2022-11-20T04:52:58.112Z,-4.20
2022-11-20T04:55:27.350Z,-4.10
2022-11-20T04:57:56.474Z,-4.00
2022-11-20T05:00:25.062Z,-3.90
2022-11-20T05:02:57.541Z,-3.90
2022-11-20T05:05:26.345Z,-4.00
2022-11-20T05:08:00.955Z,-4.00
2022-11-20T05:10:30.065Z,-4.00
2022-11-20T05:12:59.692Z,-4.00
2022-11-20T05:15:29.252Z,-4.00
2022-11-20T05:17:58.785Z,-3.90
2022-11-20T05:20:27.783Z,-3.90
2022-11-20T05:23:00.676Z,-4.10
2022-11-20T05:25:29.322Z,-4.20
2022-11-20T05:27:58.804Z,-4.10
2022-11-20T05:30:28.397Z,-4.10
2022-11-20T05:32:57.518Z,-4.30
2022-11-20T05:35:26.217Z,-4.50
2022-11-20T05:37:54.830Z,-4.50
2022-11-20T05:40:24.903Z,-4.30
2022-11-20T05:42:53.749Z,-4.30
2022-11-20T05:45:22.406Z,-4.20
2022-11-20T05:47:51.201Z,-4.20
2022-11-20T05:50:19.860Z,-4.40
2022-11-20T05:52:51.557Z,-4.50
2022-11-20T05:55:20.453Z,-4.60
2022-11-20T05:57:50.467Z,-4.70
2022-11-20T06:00:19.821Z,-4.60
2022-11-20T06:02:48.504Z,-4.40
2022-11-20T06:05:17.315Z,-4.30
2022-11-20T06:07:46.009Z,-4.30
2022-11-20T06:10:14.640Z,-4.30
2022-11-20T06:12:43.593Z,-4.20
2022-11-20T06:15:14.779Z,-4.10
2022-11-20T06:17:43.428Z,-4.20
2022-11-20T06:20:12.838Z,-4.20
2022-11-20T06:22:41.526Z,-4.20
2022-11-20T06:25:10.584Z,-4.20
2022-11-20T06:27:39.295Z,-4.30
2022-11-20T06:30:09.017Z,-4.40
2022-11-20T06:32:38.950Z,-4.40
2022-11-20T06:35:08.074Z,-4.30
2022-11-20T06:37:36.724Z,-4.30
2022-11-20T06:40:06.325Z,-4.30
2022-11-20T06:42:36.723Z,-4.30
2022-11-20T06:45:07.971Z,-4.20
2022-11-20T06:47:37.909Z,-4.20
2022-11-20T06:50:07.311Z,-4.40
2022-11-20T06:52:39.542Z,-4.30
2022-11-20T06:55:12.023Z,-4.30
2022-11-20T06:57:40.606Z,-4.30
2022-11-20T07:00:10.441Z,-4.20
2022-11-20T07:02:40.576Z,-4.20
2022-11-20T07:05:09.358Z,-4.30
2022-11-20T07:07:38.090Z,-4.40
2022-11-20T07:10:07.988Z,-4.50
2022-11-20T07:12:36.865Z,-4.40
2022-11-20T07:15:09.029Z,-4.30
2022-11-20T07:17:37.638Z,-4.30
2022-11-20T07:20:11.858Z,-4.20
2022-11-20T07:22:40.709Z,-4.20
2022-11-20T07:25:12.678Z,-4.10
2022-11-20T07:27:41.288Z,-4.30
2022-11-20T07:30:10.600Z,-4.50
2022-11-20T07:32:39.283Z,-4.50
2022-11-20T07:35:10.240Z,-4.40
2022-11-20T07:37:39.036Z,-4.40
2022-11-20T07:40:08.329Z,-4.20
2022-11-20T07:42:36.941Z,-4.10
2022-11-20T07:45:06.321Z,-4.00
2022-11-20T07:47:37.774Z,-3.90
2022-11-20T07:50:07.464Z,-3.80
2022-11-20T07:52:40.479Z,-4.00
2022-11-20T07:55:10.687Z,-4.00
2022-11-20T07:57:41.353Z,-3.80
2022-11-20T08:00:12.594Z,-3.60
2022-11-20T08:02:41.937Z,-3.40
2022-11-20T08:05:11.923Z,-3.30
2022-11-20T08:07:43.361Z,-3.20
2022-11-20T08:10:16.070Z,-3.10
2022-11-20T08:13:06.319Z,-3.10
2022-11-20T08:15:35.342Z,-3.10
2022-11-20T08:20:58.282Z,-2.90
2022-11-20T08:23:29.124Z,-2.90
2022-11-20T08:25:58.703Z,-2.90
2022-11-20T08:28:27.985Z,-2.90
2022-11-20T08:31:03.231Z,-2.80
2022-11-20T08:33:33.660Z,-2.80
2022-11-20T08:36:03.190Z,-2.60
2022-11-20T08:38:33.875Z,-2.50
2022-11-20T08:41:22.052Z,-2.40
2022-11-20T08:43:51.040Z,-2.20
2022-11-20T08:46:19.883Z,-2.10
2022-11-20T08:48:48.545Z,-2.00
2022-11-20T08:51:17.603Z,-2.00
2022-11-20T08:53:49.601Z,-2.00
2022-11-20T08:56:19.046Z,-2.00
2022-11-20T08:59:17.907Z,-2.10
2022-11-20T09:01:36.354Z,-2.10
2022-11-20T09:04:05.779Z,-2.00
2022-11-20T09:06:34.346Z,-1.90
2022-11-20T09:09:06.905Z,-1.80
2022-11-20T09:11:37.267Z,-1.70
2022-11-20T09:14:06.176Z,-1.60
2022-11-20T09:16:34.855Z,-1.50
2022-11-20T09:21:54.605Z,-1.40
2022-11-20T09:24:28.889Z,-1.20
2022-11-20T09:27:00.863Z,-1.10
2022-11-20T09:29:29.431Z,-1.00
2022-11-20T09:31:58.734Z,-0.90
2022-11-20T09:34:27.436Z,-0.80
2022-11-20T09:36:56.683Z,-0.70
2022-11-20T09:39:27.720Z,-0.60
2022-11-20T09:42:30.279Z,-0.50
2022-11-20T09:45:14.365Z,-0.50
2022-11-20T09:47:56.166Z,-0.30
2022-11-20T09:50:33.170Z,-0.20
2022-11-20T09:53:15.680Z,-0.10
2022-11-20T09:55:44.634Z,0.00
2022-11-20T09:58:24.780Z,0.10
2022-11-20T10:00:57.540Z,0.10
2022-11-20T10:03:38.320Z,0.20
2022-11-20T10:06:12.644Z,0.30
2022-11-20T10:08:46.807Z,0.30
2022-11-20T10:11:22.366Z,0.40
2022-11-20T10:14:02.282Z,0.40
2022-11-20T10:16:41.768Z,0.40
2022-11-20T10:19:26.922Z,0.50
2022-11-20T10:22:04.140Z,0.60
2022-11-20T10:24:52.878Z,0.60
2022-11-20T10:27:47.887Z,0.80
2022-11-20T10:30:21.066Z,0.90
2022-11-20T10:32:54.143Z,1.00
2022-11-20T10:35:29.689Z,1.00
2022-11-20T10:38:04.705Z,1.10
2022-11-20T10:40:40.023Z,1.20
2022-11-20T10:43:15.055Z,1.30
2022-11-20T10:45:52.655Z,1.30
2022-11-20T10:48:24.110Z,1.40
2022-11-20T10:51:01.749Z,1.50
2022-11-20T10:53:54.527Z,1.60
2022-11-20T10:56:28.578Z,1.60
2022-11-20T10:59:31.280Z,1.60
2022-11-20T11:02:03.373Z,1.80
2022-11-20T11:04:39.418Z,2.00
2022-11-20T11:07:14.411Z,2.20
2022-11-20T11:09:46.663Z,2.40
2022-11-20T11:12:15.724Z,2.40
2022-11-20T11:14:46.416Z,2.40
2022-11-20T11:17:27.890Z,2.40
2022-11-20T11:20:04.568Z,2.50
2022-11-20T11:22:35.628Z,2.60
2022-11-20T11:25:04.871Z,2.70
2022-11-20T11:27:33.534Z,2.90
2022-11-20T11:30:17.029Z,2.90
2022-11-20T11:32:47.258Z,2.70
2022-11-20T11:35:25.766Z,2.70
2022-11-20T11:38:03.403Z,2.80
2022-11-20T11:40:34.745Z,2.90
2022-11-20T11:43:29.601Z,3.00
2022-11-20T11:45:59.388Z,3.00
2022-11-20T11:48:29.576Z,3.10
2022-11-20T11:51:01.333Z,3.00
2022-11-20T11:53:31.188Z,3.00
2022-11-20T11:56:06.093Z,3.00
2022-11-20T11:58:45.532Z,3.00
2022-11-20T12:01:28.884Z,3.00
2022-11-20T12:04:06.117Z,3.00
2022-11-20T12:06:38.834Z,3.00
2022-11-20T12:09:11.283Z,3.10
2022-11-20T12:11:48.940Z,3.10
2022-11-20T12:14:25.012Z,3.10
2022-11-20T12:16:59.575Z,3.10
2022-11-20T12:19:34.192Z,3.10
2022-11-20T12:22:09.260Z,3.10
2022-11-20T12:24:49.294Z,3.10
2022-11-20T12:27:46.702Z,3.10
2022-11-20T12:30:17.209Z,3.10
2022-11-20T12:33:03.917Z,3.00
2022-11-20T12:35:45.987Z,3.00
2022-11-20T12:38:34.336Z,2.90
2022-11-20T12:41:15.066Z,2.90
2022-11-20T12:44:19.585Z,2.90
2022-11-20T12:46:51.957Z,2.80
2022-11-20T12:49:32.381Z,2.70
2022-11-20T12:52:19.482Z,2.80
2022-11-20T12:55:09.422Z,2.70
2022-11-20T12:57:45.757Z,2.80
2022-11-20T13:00:17.308Z,2.80
2022-11-20T13:03:09.089Z,2.70
2022-11-20T13:05:47.179Z,2.70
2022-11-20T13:08:24.372Z,2.70
2022-11-20T13:11:02.217Z,2.60
2022-11-20T13:13:42.077Z,2.70
2022-11-20T13:16:18.740Z,2.60
2022-11-20T13:18:47.611Z,2.60
2022-11-20T13:21:17.911Z,2.70
2022-11-20T13:23:48.121Z,2.60
2022-11-20T13:26:21.024Z,2.60
2022-11-20T13:29:01.785Z,2.50
2022-11-20T13:31:34.345Z,2.50
2022-11-20T13:34:06.555Z,2.50
2022-11-20T13:36:37.552Z,2.60
2022-11-20T13:39:07.633Z,2.60
2022-11-20T13:41:38.872Z,2.60
2022-11-20T13:44:14.815Z,2.60
2022-11-20T13:46:45.629Z,2.60
2022-11-20T13:49:20.888Z,2.60
2022-11-20T13:51:51.649Z,2.50
2022-11-20T13:54:52.896Z,2.50
2022-11-20T13:57:51.941Z,2.50
2022-11-20T14:00:22.416Z,2.40
2022-11-20T14:03:04.229Z,2.40
2022-11-20T14:05:37.073Z,2.40
2022-11-20T14:08:07.607Z,2.40
2022-11-20T14:10:40.291Z,2.40
2022-11-20T14:13:20.693Z,2.40
2022-11-20T14:15:49.532Z,2.40
2022-11-20T14:18:23.348Z,2.40
2022-11-20T14:20:52.027Z,2.30
2022-11-20T14:23:29.987Z,2.30
2022-11-20T14:26:01.583Z,2.40
2022-11-20T14:28:31.674Z,2.30
2022-11-20T14:31:00.441Z,2.30
2022-11-20T14:33:29.703Z,2.30
2022-11-20T14:36:01.582Z,2.30
2022-11-20T14:38:31.381Z,2.30
2022-11-20T14:41:20.757Z,2.30
2022-11-20T14:43:52.089Z,2.30
2022-11-20T14:46:21.034Z,2.20
2022-11-20T14:48:51.502Z,2.30
2022-11-20T14:51:31.398Z,2.30
2022-11-20T14:54:11.082Z,2.30
2022-11-20T14:56:41.213Z,2.30
2022-11-20T14:59:11.230Z,2.30
2022-11-20T15:01:39.875Z,2.30
2022-11-20T15:04:11.651Z,2.30
2022-11-20T15:06:51.985Z,2.40
2022-11-20T15:09:20.576Z,2.30
2022-11-20T15:11:58.397Z,2.30
2022-11-20T15:14:28.443Z,2.30
2022-11-20T15:17:00.330Z,2.30
2022-11-20T15:19:29.328Z,2.30
2022-11-20T15:21:58.556Z,2.30
2022-11-20T15:24:27.256Z,2.20
2022-11-20T15:26:57.451Z,2.30
2022-11-20T15:29:27.348Z,2.30
2022-11-20T15:31:57.132Z,2.30
2022-11-20T15:34:26.284Z,2.30
2022-11-20T15:36:56.031Z,2.20
2022-11-20T15:39:24.631Z,2.20
2022-11-20T15:41:53.208Z,2.20
2022-11-20T15:44:23.246Z,2.20
2022-11-20T15:46:53.328Z,2.20
2022-11-20T15:49:23.830Z,2.20
2022-11-20T15:51:53.694Z,2.20
2022-11-20T15:54:24.639Z,2.20
2022-11-20T15:56:54.223Z,2.30
2022-11-20T15:59:24.275Z,2.30
2022-11-20T16:01:52.947Z,2.30
2022-11-20T16:04:22.154Z,2.30
2022-11-20T16:06:51.160Z,2.30
2022-11-20T16:09:19.778Z,2.30
2022-11-20T16:11:48.361Z,2.30
2022-11-20T16:14:34.232Z,2.30
2022-11-20T16:17:04.927Z,2.30
2022-11-20T16:19:33.480Z,2.30
2022-11-20T16:22:03.416Z,2.30
2022-11-20T16:24:32.442Z,2.30
2022-11-20T16:27:01.104Z,2.40
2022-11-20T16:29:29.675Z,2.40
2022-11-20T16:32:01.116Z,2.40
2022-11-20T16:34:31.125Z,2.40
2022-11-20T16:36:59.680Z,2.40
2022-11-20T16:39:31.514Z,2.40
2022-11-20T16:42:00.053Z,2.40
2022-11-20T16:44:29.166Z,2.50
2022-11-20T16:47:01.400Z,2.50
2022-11-20T16:49:32.193Z,2.40
2022-11-20T16:52:01.270Z,2.40
2022-11-20T16:54:29.896Z,2.40
2022-11-20T16:56:59.042Z,2.30
2022-11-20T16:59:28.498Z,2.30
2022-11-20T17:01:57.593Z,2.20
2022-11-20T17:04:26.627Z,2.20
2022-11-20T17:06:57.421Z,2.20
2022-11-20T17:09:26.480Z,2.20
2022-11-20T17:11:55.027Z,2.30
2022-11-20T17:14:23.793Z,2.20
2022-11-20T17:16:52.615Z,2.20
2022-11-20T17:19:21.387Z,2.20
2022-11-20T17:21:50.014Z,2.20
2022-11-20T17:24:21.147Z,2.20
2022-11-20T17:26:50.723Z,2.20
2022-11-20T17:29:24.032Z,2.10
2022-11-20T17:31:52.987Z,2.20
2022-11-20T17:34:22.215Z,2.20
2022-11-20T17:36:51.012Z,2.20
2022-11-20T17:39:25.543Z,2.20
2022-11-20T17:42:08.740Z,2.20
2022-11-20T17:44:39.386Z,2.20
2022-11-20T17:47:08.003Z,2.20
2022-11-20T17:49:36.779Z,2.30
2022-11-20T17:52:05.919Z,2.20
2022-11-20T17:54:38.969Z,2.30
2022-11-20T17:57:25.958Z,2.30
2022-11-20T17:59:54.583Z,2.20
2022-11-20T18:02:23.201Z,2.20
2022-11-20T18:04:51.904Z,2.30
2022-11-20T18:07:20.592Z,2.30
2022-11-20T18:09:51.455Z,2.30
2022-11-20T18:12:20.275Z,2.30
2022-11-20T18:14:48.955Z,2.30
2022-11-20T18:17:20.468Z,2.20
2022-11-20T18:20:21.378Z,2.30
2022-11-20T18:22:39.533Z,2.30
2022-11-20T18:25:10.603Z,2.30
2022-11-20T18:27:39.511Z,2.30
2022-11-20T18:30:09.276Z,2.30
2022-11-20T18:32:38.112Z,2.30
2022-11-20T18:35:07.861Z,2.30
2022-11-20T18:37:36.505Z,2.30
2022-11-20T18:40:05.670Z,2.30
2022-11-20T18:42:54.998Z,2.30
2022-11-20T18:45:23.682Z,2.30
2022-11-20T18:47:52.357Z,2.30
2022-11-20T18:50:21.080Z,2.30
2022-11-20T18:52:49.724Z,2.30
2022-11-20T18:55:18.416Z,2.30
2022-11-20T18:57:48.499Z,2.30
2022-11-20T19:00:17.950Z,2.30
2022-11-20T19:02:46.639Z,2.30
2022-11-20T19:05:16.530Z,2.30
2022-11-20T19:07:45.210Z,2.30
2022-11-20T19:10:14.034Z,2.30
2022-11-20T19:12:42.762Z,2.30
2022-11-20T19:15:13.059Z,2.30
2022-11-20T19:17:42.039Z,2.30
2022-11-20T19:20:11.802Z,2.30
2022-11-20T19:22:40.487Z,2.30
2022-11-20T19:25:10.192Z,2.30
2022-11-20T19:27:39.337Z,2.30
2022-11-20T19:30:08.983Z,2.30
2022-11-20T19:32:39.278Z,2.30
2022-11-20T19:35:08.446Z,2.30
2022-11-20T19:37:37.201Z,2.30
2022-11-20T19:40:06.399Z,2.30
2022-11-20T19:42:36.155Z,2.30
2022-11-20T19:45:04.976Z,2.30
2022-11-20T19:48:06.075Z,2.30
2022-11-20T19:50:23.626Z,2.30
2022-11-20T19:52:58.390Z,2.20
2022-11-20T19:55:30.654Z,2.20
2022-11-20T19:57:59.590Z,2.30
2022-11-20T20:00:32.963Z,2.20
2022-11-20T20:03:01.913Z,2.20
2022-11-20T20:05:32.151Z,2.20
2022-11-20T20:08:01.046Z,2.30
2022-11-20T20:10:29.836Z,2.20
2022-11-20T20:13:01.388Z,2.20
2022-11-20T20:15:30.172Z,2.20
2022-11-20T20:18:04.285Z,2.20
2022-11-20T20:20:34.473Z,2.20
2022-11-20T20:23:07.111Z,2.20
2022-11-20T20:25:37.978Z,2.20
2022-11-20T20:28:06.950Z,2.20
2022-11-20T20:30:37.951Z,2.10
2022-11-20T20:33:06.645Z,2.20
2022-11-20T20:35:42.977Z,2.20
2022-11-20T20:38:11.770Z,2.20
2022-11-20T20:40:40.748Z,2.10
2022-11-20T20:43:09.568Z,2.10
2022-11-20T20:45:38.709Z,2.10
2022-11-20T20:48:07.719Z,2.10
2022-11-20T20:50:39.350Z,2.10
2022-11-20T20:53:09.422Z,2.10
2022-11-20T20:55:38.205Z,2.10
2022-11-20T20:58:06.785Z,2.10
2022-11-20T21:00:35.525Z,2.10
2022-11-20T21:03:04.443Z,2.10
2022-11-20T21:05:33.086Z,2.10
2022-11-20T21:08:19.533Z,2.10
2022-11-20T21:10:49.596Z,2.10
2022-11-20T21:13:18.367Z,2.10
2022-11-20T21:15:49.108Z,2.10
2022-11-20T21:18:19.428Z,2.10
2022-11-20T21:21:06.273Z,2.10
2022-11-20T21:23:37.440Z,2.10
2022-11-20T21:26:09.717Z,2.10
2022-11-20T21:28:39.090Z,2.10
2022-11-20T21:31:09.285Z,2.10
2022-11-20T21:33:43.316Z,2.10
2022-11-20T21:36:14.574Z,2.10
2022-11-20T21:38:45.250Z,2.00
2022-11-20T21:41:19.474Z,2.00
2022-11-20T21:44:09.190Z,2.00
2022-11-20T21:46:41.249Z,2.00
2022-11-20T21:49:10.332Z,2.00
2022-11-20T21:51:39.275Z,2.00
2022-11-20T21:54:08.153Z,1.90
2022-11-20T21:56:38.138Z,1.90
2022-11-20T21:59:12.225Z,1.90
2022-11-20T22:01:41.799Z,1.90
2022-11-20T22:04:14.947Z,1.90
2022-11-20T22:06:45.518Z,1.90
2022-11-20T22:09:16.758Z,1.90
2022-11-20T22:11:47.078Z,1.90
2022-11-20T22:14:26.046Z,1.90
2022-11-20T22:16:55.223Z,1.90
2022-11-20T22:19:24.764Z,1.90
2022-11-20T22:21:53.454Z,1.90
2022-11-20T22:24:25.449Z,1.90
2022-11-20T22:26:56.000Z,1.80
2022-11-20T22:29:24.761Z,1.80
2022-11-20T22:31:54.111Z,1.90
2022-11-20T22:34:23.128Z,1.90
2022-11-20T22:36:52.325Z,1.80
2022-11-20T22:39:23.263Z,1.80
2022-11-20T22:41:52.160Z,1.80
2022-11-20T22:44:22.811Z,1.80
2022-11-20T22:46:51.666Z,1.80
2022-11-20T22:49:20.240Z,1.80
2022-11-20T22:51:49.045Z,1.80
2022-11-20T22:54:17.820Z,1.80
2022-11-20T22:56:47.128Z,1.80
2022-11-20T22:59:18.544Z,1.80
2022-11-20T23:01:48.652Z,1.80
2022-11-20T23:04:17.380Z,1.80
2022-11-20T23:06:46.152Z,1.80
2022-11-20T23:09:15.020Z,1.80
2022-11-20T23:11:44.082Z,1.80
2022-11-20T23:14:15.883Z,1.80
2022-11-20T23:16:44.810Z,1.70
2022-11-20T23:19:15.943Z,1.70
2022-11-20T23:21:45.042Z,1.70
2022-11-20T23:24:13.748Z,1.70
2022-11-20T23:26:43.303Z,1.70
2022-11-20T23:29:13.737Z,1.60
2022-11-20T23:31:43.255Z,1.60
2022-11-20T23:34:16.145Z,1.60
2022-11-20T23:36:44.845Z,1.60
2022-11-20T23:39:15.078Z,1.60
2022-11-20T23:41:43.946Z,1.60
2022-11-20T23:44:23.587Z,1.60
2022-11-20T23:46:52.259Z,1.60
2022-11-20T23:49:22.392Z,1.60
2022-11-20T23:51:51.067Z,1.60
2022-11-20T23:54:19.751Z,1.60
2022-11-20T23:56:48.486Z,1.50
2022-11-20T23:59:17.321Z,1.50
